Hialeah, Florida
Current Conditions -  °F | °C
As of 11:53 PM on Wednesday 22 Oct 2014 (Local Time) from KMIA Reporting Station
Overcast Overcast  
Wind Chill: 75°   Ceiling: 12000
Heat Index: 75°   Visibility: 10mi
Dew Point: 73°   Wind: 0mph
Humidity: 94%   Direction: NA
Pressure: 29.93"   Gusts: NA
Location:  25.86°N, 80.29°W
Report Text: KMIA 230353Z 00000KT 10SM FEW015 OVC120 24/23 A2993 RMK AO2 SLP134 T02390228
Loading
Personal Weather Stations






























Interactive Weather Map New forecast layout! Learn more

10-Day Weather Forecast

Advertisements
Track Severe Weather on mobile